Time;durP1;ratioP1;P1;durP2;ratioP2;P2;SDS_P1;SDS_P2;PMS_P1;PMS_P2;Temp;Humidity;BMP_temperature;BMP_pressure;BME280_temperature;BME280_humidity;BME280_pressure;Samples;Min_cycle;Max_cycle;Signal;HPM_P1;HPM_P2
2023/05/04 00:00:50;;;;;;;65.40;41.43;;;14.60;91.80;;;;;;4587611;19;20314;-20
2023/05/04 00:02:23;;;;;;;64.10;39.03;;;14.60;91.90;;;;;;4588813;19;20066;-20
2023/05/04 00:03:54;;;;;;;60.78;38.67;;;14.60;91.90;;;;;;4589794;19;20363;-20
2023/05/04 00:05:27;;;;;;;60.57;39.23;;;14.60;91.90;;;;;;4589205;19;20467;-20
2023/05/04 00:06:58;;;;;;;66.18;38.83;;;14.60;91.90;;;;;;4588912;19;20528;-20
2023/05/04 00:08:30;;;;;;;62.60;39.13;;;14.60;91.90;;;;;;4589799;19;20018;-20
2023/05/04 00:10:01;;;;;;;61.13;39.28;;;14.60;92.00;;;;;;4589993;19;20017;-20
2023/05/04 00:11:32;;;;;;;65.55;39.97;;;14.60;91.80;;;;;;4589655;19;20015;-21
2023/05/04 00:13:03;;;;;;;68.13;40.55;;;14.50;91.80;;;;;;4589389;19;20468;-20
2023/05/04 00:14:36;;;;;;;67.40;43.13;;;14.50;91.80;;;;;;4589593;19;20404;-20
2023/05/04 00:16:07;;;;;;;62.55;41.50;;;14.50;91.80;;;;;;4587303;19;20018;-19
2023/05/04 00:17:39;;;;;;;65.20;39.53;;;14.50;91.80;;;;;;4588317;19;20011;-20
2023/05/04 00:19:12;;;;;;;61.00;37.93;;;14.50;91.80;;;;;;4588948;19;20017;-20
2023/05/04 00:20:45;;;;;;;60.70;38.37;;;14.50;92.00;;;;;;4593498;19;20034;-20
2023/05/04 00:22:17;;;;;;;60.80;36.93;;;14.50;91.80;;;;;;4594831;19;20066;-20
2023/05/04 00:23:49;;;;;;;62.00;37.15;;;14.50;91.80;;;;;;4594397;19;20013;-20
2023/05/04 00:25:20;;;;;;;62.45;38.35;;;14.50;91.80;;;;;;4593874;19;20031;-20
2023/05/04 00:26:52;;;;;;;64.57;38.77;;;14.50;91.90;;;;;;4593725;19;20070;-20
2023/05/04 00:28:23;;;;;;;67.35;38.50;;;14.50;91.80;;;;;;4594085;19;20073;-20
2023/05/04 00:29:56;;;;;;;65.10;38.20;;;14.50;91.80;;;;;;4594366;19;20015;-20
2023/05/04 00:31:29;;;;;;;63.80;39.27;;;14.50;91.90;;;;;;4594001;19;20010;-19
2023/05/04 00:33:01;;;;;;;62.17;39.45;;;14.50;91.80;;;;;;4592917;19;20436;-20
2023/05/04 00:34:33;;;;;;;61.27;38.47;;;14.50;91.80;;;;;;4593854;19;20014;-19
2023/05/04 00:36:05;;;;;;;62.85;38.95;;;14.50;91.80;;;;;;4594745;19;20002;-20
2023/05/04 00:37:38;;;;;;;64.33;38.77;;;14.50;91.80;;;;;;4593734;19;20373;-20
2023/05/04 00:39:09;;;;;;;64.10;40.83;;;14.50;91.80;;;;;;4594194;19;20010;-20
2023/05/04 00:40:41;;;;;;;63.30;38.83;;;14.50;91.80;;;;;;4592434;19;20003;-20
2023/05/04 00:42:12;;;;;;;;;;;14.50;91.80;;;;;;4593332;19;20047;-20
2023/05/04 00:43:45;;;;;;;65.47;39.17;;;14.50;91.90;;;;;;4592691;19;20381;-20
2023/05/04 00:45:17;;;;;;;64.87;39.47;;;14.50;91.80;;;;;;4592502;19;20058;-20
2023/05/04 00:46:51;;;;;;;61.43;38.70;;;14.50;91.80;;;;;;4593527;19;20055;-20
2023/05/04 00:48:22;;;;;;;64.70;37.57;;;14.50;91.80;;;;;;4593414;19;20017;-20
2023/05/04 00:49:53;;;;;;;64.70;39.10;;;14.50;91.70;;;;;;4593559;19;20384;-21
2023/05/04 00:51:26;;;;;;;60.93;36.50;;;14.50;91.70;;;;;;4593247;19;20006;-21
2023/05/04 00:52:57;;;;;;;61.88;39.38;;;14.50;91.80;;;;;;4593550;19;20044;-20
2023/05/04 00:54:30;;;;;;;58.70;38.57;;;14.50;91.70;;;;;;4593784;19;20011;-20
2023/05/04 00:56:03;;;;;;;57.50;35.20;;;14.50;91.80;;;;;;4592225;19;20373;-19
2023/05/04 00:57:34;;;;;;;58.72;37.05;;;14.50;91.80;;;;;;4592519;19;20495;-20
2023/05/04 00:59:05;;;;;;;53.50;33.70;;;14.50;91.90;;;;;;4592492;19;20031;-20
2023/05/04 01:00:37;;;;;;;49.90;31.85;;;14.50;91.80;;;;;;4593567;19;20077;-20
2023/05/04 01:02:09;;;;;;;50.47;32.43;;;14.50;91.90;;;;;;4593484;19;20472;-20
2023/05/04 01:03:42;;;;;;;49.60;30.40;;;14.40;91.80;;;;;;4593461;19;20387;-20
2023/05/04 01:05:14;;;;;;;39.92;25.70;;;14.40;91.80;;;;;;4593637;19;20006;-19
2023/05/04 01:07:43;;;;;;;39.90;26.13;;;14.50;91.80;;;;;;4592974;19;20014;-20
2023/05/04 01:09:18;;;;;;;43.97;27.43;;;14.40;92.00;;;;;;4590880;19;20025;-20
2023/05/04 01:11:14;;;;;;;44.63;27.97;;;14.40;91.70;;;;;;4590842;19;20433;-20
2023/05/04 01:12:51;;;;;;;40.23;27.50;;;14.40;91.60;;;;;;4591040;19;20014;-21
2023/05/04 01:14:24;;;;;;;42.77;28.53;;;14.40;91.70;;;;;;4590730;19;20424;-20
2023/05/04 01:15:55;;;;;;;47.00;27.98;;;14.30;91.50;;;;;;4591352;19;20860;-20
2023/05/04 01:17:26;;;;;;;41.65;27.58;;;14.40;91.60;;;;;;4592707;19;20011;-21
2023/05/04 01:18:58;;;;;;;43.95;28.38;;;14.30;91.50;;;;;;4590912;19;20011;-20
2023/05/04 01:20:29;;;;;;;45.33;29.27;;;14.30;91.50;;;;;;4590877;19;20349;-19
2023/05/04 01:22:00;;;;;;;47.47;30.88;;;14.40;91.40;;;;;;4591218;19;20031;-20
2023/05/04 01:23:32;;;;;;;53.93;32.47;;;14.40;91.40;;;;;;4590768;19;20530;-19
2023/05/04 01:25:04;;;;;;;54.90;34.75;;;14.30;91.30;;;;;;4591093;19;20011;-20
2023/05/04 01:26:40;;;;;;;56.90;35.80;;;14.40;91.40;;;;;;4590241;19;20068;-20
2023/05/04 01:28:38;;;;;;;53.87;35.43;;;14.40;91.40;;;;;;4588983;19;20011;-20
2023/05/04 01:30:15;;;;;;;62.60;36.27;;;14.40;91.40;;;;;;4590526;19;20015;-20
2023/05/04 01:31:47;;;;;;;67.10;38.47;;;14.40;91.40;;;;;;4588851;19;21053;-20
2023/05/04 01:33:18;;;;;;;60.40;38.92;;;14.40;91.40;;;;;;4590266;19;20010;-20
2023/05/04 01:34:50;;;;;;;63.10;40.35;;;14.40;91.40;;;;;;4590860;19;20014;-20
2023/05/04 01:36:23;;;;;;;64.93;40.33;;;14.40;91.40;;;;;;4590254;19;20035;-20
2023/05/04 01:37:55;;;;;;;58.33;38.67;;;14.40;91.40;;;;;;4590459;19;20499;-19
2023/05/04 01:39:28;;;;;;;56.50;36.27;;;14.40;91.30;;;;;;4590339;19;20400;-20
2023/05/04 01:41:00;;;;;;;56.17;36.57;;;14.30;91.40;;;;;;4590233;19;20045;-20
2023/05/04 01:42:33;;;;;;;55.23;37.80;;;14.40;91.40;;;;;;4590202;19;20496;-20
2023/05/04 01:44:04;;;;;;;63.92;39.88;;;14.30;91.40;;;;;;4589699;19;20423;-21
2023/05/04 01:45:36;;;;;;;61.10;39.55;;;14.40;91.50;;;;;;4590742;19;20039;-20
2023/05/04 01:47:07;;;;;;;61.53;39.42;;;14.40;91.40;;;;;;4591206;19;20015;-20
2023/05/04 01:48:41;;;;;;;60.40;39.17;;;14.40;91.40;;;;;;4591234;19;20381;-20
2023/05/04 01:50:13;;;;;;;60.10;37.97;;;14.40;91.30;;;;;;4592081;19;20038;-20
2023/05/04 01:51:45;;;;;;;60.33;40.65;;;14.40;91.40;;;;;;4593053;19;20044;-21
2023/05/04 01:53:16;;;;;;;61.03;39.23;;;14.40;91.30;;;;;;4592948;19;20006;-21
2023/05/04 01:54:47;;;;;;;61.67;36.85;;;14.40;91.30;;;;;;4592189;19;20074;-21
2023/05/04 01:56:18;;;;;;;58.63;37.17;;;14.40;91.30;;;;;;4592616;19;20010;-20
2023/05/04 01:57:49;;;;;;;53.30;33.33;;;14.40;91.30;;;;;;4591078;19;20376;-20
2023/05/04 01:59:20;;;;;;;50.13;32.17;;;14.40;91.20;;;;;;4591383;19;20062;-21
2023/05/04 02:00:52;;;;;;;51.22;32.30;;;14.30;91.20;;;;;;4592229;19;20003;-19
2023/05/04 02:02:24;;;;;;;42.67;29.00;;;14.40;91.30;;;;;;4592515;19;20361;-20
2023/05/04 02:03:57;;;;;;;44.87;29.83;;;14.40;91.20;;;;;;4592399;19;20011;-20
2023/05/04 02:05:28;;;;;;;43.88;30.67;;;14.40;91.20;;;;;;4590887;19;20014;-20
2023/05/04 02:07:00;;;;;;;46.50;29.57;;;14.40;91.20;;;;;;4591237;19;20010;-21
2023/05/04 02:08:32;;;;;;;44.13;29.40;;;14.40;91.30;;;;;;4591846;19;20421;-20
2023/05/04 02:10:05;;;;;;;48.07;30.40;;;14.40;91.40;;;;;;4592562;19;20002;-19
2023/05/04 02:11:38;;;;;;;55.73;33.23;;;14.40;91.30;;;;;;4591687;19;20810;-21
2023/05/04 02:13:11;;;;;;;50.20;32.73;;;14.40;91.30;;;;;;4590745;19;20024;-20
2023/05/04 02:14:45;;;;;;;52.37;34.20;;;14.40;91.40;;;;;;4591308;19;20532;-20
2023/05/04 02:16:16;;;;;;;55.03;36.10;;;14.40;91.30;;;;;;4592395;19;20455;-20
2023/05/04 02:17:48;;;;;;;62.35;37.67;;;14.40;91.20;;;;;;4591529;19;20022;-20
2023/05/04 02:19:20;;;;;;;52.93;36.27;;;14.40;91.20;;;;;;4590197;19;20018;-21
2023/05/04 02:20:52;;;;;;;57.20;36.15;;;14.30;91.20;;;;;;4591675;19;20014;-20
2023/05/04 02:22:24;;;;;;;56.23;37.10;;;14.30;91.20;;;;;;4592491;19;19999;-20
2023/05/04 02:23:56;;;;;;;57.93;38.23;;;14.30;91.20;;;;;;4591676;19;20081;-20
2023/05/04 02:25:27;;;;;;;55.50;36.63;;;14.30;91.20;;;;;;4592094;19;20989;-20
2023/05/04 02:27:00;;;;;;;55.63;36.27;;;14.30;91.10;;;;;;4591499;19;20011;-20
2023/05/04 02:28:32;;;;;;;;;;;14.30;91.10;;;;;;4592494;19;20455;-20
2023/05/04 02:30:03;;;;;;;55.03;36.70;;;14.30;91.10;;;;;;4591335;19;19922;-20
2023/05/04 02:31:36;;;;;;;56.00;37.87;;;14.30;91.10;;;;;;4591914;19;20010;-20
2023/05/04 02:33:09;;;;;;;58.20;38.13;;;14.30;91.10;;;;;;4591530;19;21077;-20
2023/05/04 02:34:42;;;;;;;59.00;39.60;;;14.30;91.10;;;;;;4591131;19;20443;-20
2023/05/04 02:36:13;;;;;;;58.25;37.85;;;14.30;91.10;;;;;;4591263;19;20410;-20
2023/05/04 02:37:46;;;;;;;55.40;36.23;;;14.30;91.10;;;;;;4591778;19;20034;-20
2023/05/04 02:39:19;;;;;;;50.43;34.80;;;14.30;91.10;;;;;;4592172;19;20062;-20
2023/05/04 02:40:52;;;;;;;49.90;36.00;;;14.30;91.00;;;;;;4591267;19;21016;-20
2023/05/04 02:42:25;;;;;;;55.53;35.93;;;14.30;91.00;;;;;;4589812;19;20373;-20
2023/05/04 02:43:59;;;;;;;47.63;34.30;;;14.30;91.00;;;;;;4589573;19;20477;-21
2023/05/04 02:45:31;;;;;;;53.70;32.27;;;14.30;91.20;;;;;;4591372;19;20175;-23
2023/05/04 02:47:04;;;;;;;47.47;31.38;;;14.30;90.90;;;;;;4590750;19;21013;-20
2023/05/04 02:48:35;;;;;;;53.30;35.17;;;14.30;90.90;;;;;;4591194;19;20032;-20
2023/05/04 02:50:07;;;;;;;50.80;35.97;;;14.30;90.80;;;;;;4591553;19;19999;-20
2023/05/04 02:51:41;;;;;;;44.43;32.50;;;14.30;90.80;;;;;;4591672;19;20026;-21
2023/05/04 02:53:12;;;;;;;46.28;31.42;;;14.30;90.80;;;;;;4591072;19;20011;-20
2023/05/04 02:54:43;;;;;;;46.90;30.52;;;14.30;90.70;;;;;;4591601;19;20011;-20
2023/05/04 02:56:16;;;;;;;46.05;29.30;;;14.30;90.60;;;;;;4591141;19;20025;-21
2023/05/04 02:57:47;;;;;;;43.27;29.10;;;14.40;90.70;;;;;;4590841;19;20014;-20
2023/05/04 02:59:18;;;;;;;46.42;31.85;;;14.40;90.70;;;;;;4588914;19;20487;-20
2023/05/04 03:00:54;;;;;;;49.05;32.13;;;14.40;90.80;;;;;;4590471;19;20017;-20
2023/05/04 03:02:25;;;;;;;43.50;29.03;;;14.40;90.90;;;;;;4589958;19;20074;-21
2023/05/04 03:03:59;;;;;;;42.77;28.60;;;14.40;90.80;;;;;;4590596;19;20014;-23
2023/05/04 03:05:31;;;;;;;43.42;27.17;;;14.40;90.80;;;;;;4591196;19;20445;-20
2023/05/04 03:07:05;;;;;;;41.47;27.83;;;14.40;90.70;;;;;;4590894;19;20011;-21
2023/05/04 03:08:37;;;;;;;43.43;29.57;;;14.40;90.80;;;;;;4591301;19;20417;-20
2023/05/04 03:10:09;;;;;;;46.92;28.58;;;14.40;90.80;;;;;;4589685;19;20468;-19
2023/05/04 03:11:40;;;;;;;43.33;29.70;;;14.40;90.80;;;;;;4589710;19;20066;-20
2023/05/04 03:13:11;;;;;;;46.17;30.70;;;14.40;90.70;;;;;;4590631;19;20109;-20
2023/05/04 03:14:43;;;;;;;45.57;29.67;;;14.40;90.80;;;;;;4590206;19;20006;-20
2023/05/04 03:16:15;;;;;;;;;;;14.40;90.70;;;;;;4591049;19;20007;-21
2023/05/04 03:17:47;;;;;;;42.83;28.95;;;14.40;90.70;;;;;;4590787;19;19915;-20
2023/05/04 03:19:20;;;;;;;44.70;29.47;;;14.40;90.70;;;;;;4590637;19;20002;-20
2023/05/04 03:20:53;;;;;;;44.83;31.00;;;14.40;90.80;;;;;;4591403;19;20033;-20
2023/05/04 03:22:25;;;;;;;44.33;30.02;;;14.40;90.90;;;;;;4590504;19;21057;-20
2023/05/04 03:23:59;;;;;;;44.33;30.60;;;14.40;91.00;;;;;;4590602;19;20007;-20
2023/05/04 03:25:29;;;;;;;46.53;31.50;;;14.40;90.80;;;;;;4590883;19;20339;-19
2023/05/04 03:27:04;;;;;;;48.97;30.23;;;14.40;90.80;;;;;;4590998;19;20015;-20
2023/05/04 03:28:35;;;;;;;45.25;30.33;;;14.30;90.70;;;;;;4590607;19;20437;-22
2023/05/04 03:30:07;;;;;;;40.13;26.92;;;14.40;90.80;;;;;;4590651;19;20018;-20
2023/05/04 03:31:38;;;;;;;49.00;31.57;;;14.30;90.70;;;;;;4589882;19;20003;-20
2023/05/04 03:33:11;;;;;;;43.87;28.30;;;14.30;90.70;;;;;;4590132;19;20017;-20
2023/05/04 03:34:44;;;;;;;38.93;26.87;;;14.30;90.70;;;;;;4590595;19;20417;-20
2023/05/04 03:36:17;;;;;;;39.83;25.53;;;14.30;90.70;;;;;;4590924;19;20476;-20
2023/05/04 03:37:49;;;;;;;;;;;14.30;90.70;;;;;;4591566;19;20002;-19
2023/05/04 03:39:20;;;;;;;42.43;27.40;;;14.30;90.80;;;;;;4588949;19;19919;-20
2023/05/04 03:40:51;;;;;;;44.70;28.30;;;14.30;90.70;;;;;;4589919;19;20021;-20
2023/05/04 03:42:23;;;;;;;44.63;28.53;;;14.30;90.60;;;;;;4589568;19;20015;-20
2023/05/04 03:43:54;;;;;;;49.38;31.67;;;14.30;90.60;;;;;;4589581;19;20453;-21
2023/05/04 03:45:29;;;;;;;50.33;30.23;;;14.30;90.60;;;;;;4589725;19;20019;-21
2023/05/04 03:47:01;;;;;;;49.50;32.37;;;14.30;90.50;;;;;;4589063;19;20420;-20
2023/05/04 03:48:32;;;;;;;48.08;32.42;;;14.30;90.60;;;;;;4590233;19;19995;-20
2023/05/04 03:50:06;;;;;;;49.93;32.40;;;14.30;90.60;;;;;;4590873;19;20333;-20
2023/05/04 03:51:38;;;;;;;47.60;29.83;;;14.30;90.70;;;;;;4589862;19;20464;-20
2023/05/04 03:53:12;;;;;;;45.63;30.33;;;14.20;90.60;;;;;;4590333;19;20439;-21
2023/05/04 03:54:44;;;;;;;43.03;30.10;;;14.30;90.70;;;;;;4591257;19;20437;-21
2023/05/04 03:56:15;;;;;;;39.15;28.10;;;14.30;90.80;;;;;;4593612;19;20495;-20
2023/05/04 03:57:48;;;;;;;37.47;25.27;;;14.30;90.80;;;;;;4593506;19;20040;-20
2023/05/04 03:59:19;;;;;;;41.55;26.58;;;14.30;91.10;;;;;;4593125;19;20429;-20
2023/05/04 04:00:52;;;;;;;39.80;25.83;;;14.30;90.80;;;;;;4594807;19;20031;-20
2023/05/04 04:02:24;;;;;;;36.67;25.37;;;14.30;90.80;;;;;;4595205;19;20768;-20
2023/05/04 04:03:55;;;;;;;32.83;23.80;;;14.30;90.90;;;;;;4594679;19;20015;-20
2023/05/04 04:05:27;;;;;;;;;;;14.30;91.00;;;;;;4596031;19;20029;-20
2023/05/04 04:06:58;;;;;;;35.67;25.93;;;14.30;91.10;;;;;;4594425;19;19940;-20
2023/05/04 04:08:30;;;;;;;36.70;25.23;;;14.30;91.10;;;;;;4594283;19;20014;-20
2023/05/04 04:10:02;;;;;;;37.23;25.37;;;14.30;91.20;;;;;;4593395;19;20823;-20
2023/05/04 04:11:34;;;;;;;35.87;24.43;;;14.30;91.10;;;;;;4593988;19;20467;-20
2023/05/04 04:13:07;;;;;;;33.03;22.60;;;14.30;91.10;;;;;;4594952;19;20424;-20
2023/05/04 04:14:39;;;;;;;33.25;21.42;;;14.30;91.20;;;;;;4593165;19;21008;-20
2023/05/04 04:16:14;;;;;;;35.17;22.83;;;14.30;91.30;;;;;;4594160;19;20007;-19
2023/05/04 04:17:45;;;;;;;;;;;14.30;91.30;;;;;;4595522;19;20433;-20
2023/05/04 04:19:17;;;;;;;39.67;24.73;;;14.30;91.50;;;;;;4594778;19;19922;-19
2023/05/04 04:20:48;;;;;;;37.35;24.38;;;14.30;91.40;;;;;;4594171;19;20441;-20
2023/05/04 04:22:20;;;;;;;37.87;24.00;;;14.30;91.40;;;;;;4592901;19;20027;-20
2023/05/04 04:23:51;;;;;;;36.15;24.00;;;14.40;91.50;;;;;;4594316;19;20424;-20
2023/05/04 04:25:24;;;;;;;32.23;23.73;;;14.30;91.50;;;;;;4594679;19;20026;-20
2023/05/04 04:26:57;;;;;;;32.47;22.27;;;14.40;91.70;;;;;;4593993;19;20535;-20
2023/05/04 04:28:29;;;;;;;28.80;21.00;;;14.30;91.60;;;;;;4594284;19;20048;-21
2023/05/04 04:30:05;;;;;;;27.23;18.93;;;14.40;91.70;;;;;;4594457;19;20014;-20
2023/05/04 04:31:38;;;;;;;31.13;20.47;;;14.40;91.90;;;;;;4593111;19;20006;-19
2023/05/04 04:33:11;;;;;;;27.33;18.00;;;14.40;92.00;;;;;;4592979;19;20516;-20
2023/05/04 04:34:43;;;;;;;28.88;19.38;;;14.40;92.10;;;;;;4593667;19;20504;-20
2023/05/04 04:36:17;;;;;;;26.53;17.67;;;14.40;92.10;;;;;;4594616;19;19998;-20
2023/05/04 04:37:50;;;;;;;23.10;16.63;;;14.40;92.20;;;;;;4593946;19;20002;-20
2023/05/04 04:39:22;;;;;;;23.57;15.07;;;14.40;92.30;;;;;;4593934;19;20429;-22
2023/05/04 04:40:53;;;;;;;23.02;16.58;;;14.40;92.40;;;;;;4594328;19;20025;-19
2023/05/04 04:42:25;;;;;;;25.92;17.00;;;14.40;92.40;;;;;;4594444;19;20313;-20
2023/05/04 04:43:56;;;;;;;20.83;15.23;;;14.40;92.50;;;;;;4593309;19;20026;-21
2023/05/04 04:45:27;;;;;;;24.98;16.52;;;14.50;92.70;;;;;;4593424;19;20471;-20
2023/05/04 04:46:59;;;;;;;21.10;15.50;;;14.50;92.70;;;;;;4594189;19;20460;-20
2023/05/04 04:48:33;;;;;;;24.13;15.77;;;14.50;92.80;;;;;;4594250;19;20005;-19
2023/05/04 04:50:05;;;;;;;21.15;14.70;;;14.50;92.90;;;;;;4593503;19;20010;-20
2023/05/04 04:51:39;;;;;;;19.20;14.50;;;14.50;93.00;;;;;;4592595;19;20014;-20
2023/05/04 04:53:11;;;;;;;19.77;13.90;;;14.50;93.10;;;;;;4593188;19;20784;-20
2023/05/04 04:54:44;;;;;;;23.67;15.57;;;14.50;93.10;;;;;;4593015;19;20440;-20
2023/05/04 04:56:20;;;;;;;24.67;15.20;;;14.50;93.20;;;;;;4592279;19;20877;-19
2023/05/04 04:57:54;;;;;;;21.37;14.90;;;14.60;93.30;;;;;;4593254;19;20456;-21
2023/05/04 04:59:25;;;;;;;22.30;15.53;;;14.60;93.40;;;;;;4591234;19;20548;-20
2023/05/04 05:01:01;;;;;;;20.50;14.40;;;14.60;93.50;;;;;;4593161;19;20437;-20
2023/05/04 05:02:33;;;;;;;20.57;14.37;;;14.60;93.40;;;;;;4593371;19;20011;-20
2023/05/04 05:04:05;;;;;;;20.97;14.23;;;14.60;93.50;;;;;;4593517;19;20379;-20
2023/05/04 05:05:37;;;;;;;19.33;14.25;;;14.60;93.60;;;;;;4592390;19;20461;-19
2023/05/04 05:07:10;;;;;;;17.67;13.13;;;14.60;93.70;;;;;;4591908;19;20035;-20
2023/05/04 05:08:42;;;;;;;19.70;12.80;;;14.60;93.80;;;;;;4591947;19;20010;-20
2023/05/04 05:10:15;;;;;;;18.77;13.37;;;14.60;93.80;;;;;;4592157;19;20010;-20
2023/05/04 05:11:47;;;;;;;19.77;15.33;;;14.60;93.90;;;;;;4593314;19;20003;-20
2023/05/04 05:40:16;;;;;;;34.50;22.10;;;14.80;94.80;;;;;;4592030;19;19999;-21
2023/05/04 05:41:47;;;;;;;34.17;24.13;;;14.90;94.90;;;;;;4592264;19;20010;-20
2023/05/04 05:43:18;;;;;;;39.15;25.60;;;14.80;95.00;;;;;;4592344;19;20017;-21
2023/05/04 05:44:51;;;;;;;39.53;26.40;;;14.90;95.00;;;;;;4590269;19;20022;-20
2023/05/04 05:46:23;;;;;;;;;;;14.90;95.10;;;;;;4593014;19;20018;-20
2023/05/04 05:47:55;;;;;;;37.97;25.17;;;14.90;95.10;;;;;;4590919;19;19926;-20
2023/05/04 05:49:27;;;;;;;40.22;26.33;;;15.00;95.00;;;;;;4591751;19;20078;-20
2023/05/04 05:50:58;;;;;;;40.00;26.75;;;15.00;95.10;;;;;;4591684;19;20475;-20
2023/05/04 05:52:31;;;;;;;38.40;25.90;;;15.00;95.20;;;;;;4589648;19;20010;-20
2023/05/04 05:54:02;;;;;;;36.45;25.13;;;15.10;95.30;;;;;;4591124;19;20007;-22
2023/05/04 05:55:33;;;;;;;37.22;24.95;;;15.10;95.40;;;;;;4592866;19;20066;-20
2023/05/04 05:57:05;;;;;;;37.83;24.27;;;15.10;95.60;;;;;;4593092;19;20014;-21
2023/05/04 05:58:36;;;;;;;35.28;23.80;;;15.10;95.20;;;;;;4592250;19;20496;-20
2023/05/04 06:00:08;;;;;;;29.05;19.95;;;15.20;95.20;;;;;;4591379;19;20039;-20
2023/05/04 06:01:58;;;;;;;35.03;21.10;;;15.20;95.30;;;;;;4591111;19;20022;-21
2023/05/04 06:03:30;;;;;;;27.40;18.57;;;15.20;95.30;;;;;;4592765;19;20038;-20
2023/05/04 06:05:01;;;;;;;27.33;17.33;;;15.30;95.50;;;;;;4592163;19;20018;-20
2023/05/04 06:06:35;;;;;;;25.00;16.40;;;15.30;95.40;;;;;;4588980;19;20022;-21
2023/05/04 06:08:06;;;;;;;28.27;17.67;;;15.30;95.50;;;;;;4589532;19;20022;-19
2023/05/04 06:09:37;;;;;;;22.73;16.25;;;15.40;95.60;;;;;;4591426;19;20322;-21
2023/05/04 06:11:08;;;;;;;24.60;16.35;;;15.40;95.50;;;;;;4591164;19;20011;-21
2023/05/04 06:12:40;;;;;;;24.43;15.87;;;15.50;95.80;;;;;;4591585;19;20524;-20
2023/05/04 06:14:14;;;;;;;25.40;16.33;;;15.50;95.50;;;;;;4590846;19;20048;-20
2023/05/04 06:15:52;;;;;;;19.37;15.43;;;15.40;95.60;;;;;;4589983;19;20014;-20
2023/05/04 06:17:24;;;;;;;21.63;15.30;;;15.40;95.60;;;;;;4589015;19;20413;-20
2023/05/04 06:18:56;;;;;;;24.07;16.03;;;15.40;95.60;;;;;;4593847;19;20346;-20
2023/05/04 06:20:27;;;;;;;21.83;14.25;;;15.50;95.60;;;;;;4591560;19;20010;-21
2023/05/04 06:22:00;;;;;;;20.07;14.03;;;15.50;95.90;;;;;;4591873;19;20002;-21
2023/05/04 06:23:34;;;;;;;20.47;14.10;;;15.60;95.80;;;;;;4592635;19;20368;-21
2023/05/04 06:25:06;;;;;;;19.50;15.27;;;15.60;95.90;;;;;;4593621;19;20352;-20
2023/05/04 06:26:37;;;;;;;22.27;17.17;;;15.60;96.00;;;;;;4593009;19;20015;-21
2023/05/04 06:28:08;;;;;;;24.25;17.00;;;15.60;96.00;;;;;;4592664;19;20018;-20
2023/05/04 06:29:40;;;;;;;23.15;15.20;;;15.60;96.10;;;;;;4590325;19;20406;-20
2023/05/04 06:31:12;;;;;;;21.13;15.32;;;15.60;96.10;;;;;;4590920;19;20401;-20
2023/05/04 06:32:45;;;;;;;21.00;14.27;;;15.60;96.20;;;;;;4591204;19;20006;-20
2023/05/04 06:34:17;;;;;;;19.50;14.00;;;15.60;96.20;;;;;;4590805;19;20010;-20
2023/05/04 06:35:49;;;;;;;21.95;15.30;;;15.60;96.10;;;;;;4592992;19;20484;-20
2023/05/04 06:37:22;;;;;;;22.13;14.77;;;15.70;95.90;;;;;;4592311;19;20019;-20
2023/05/04 06:38:57;;;;;;;21.63;14.93;;;15.70;95.90;;;;;;4593371;19;20039;-20
2023/05/04 06:40:28;;;;;;;22.17;13.57;;;15.70;96.00;;;;;;4592933;19;20011;-20
2023/05/04 06:41:59;;;;;;;22.30;14.00;;;15.80;96.00;;;;;;4593352;19;20013;-21
2023/05/04 06:43:32;;;;;;;18.90;13.87;;;15.80;95.90;;;;;;4592063;19;20049;-20
2023/05/04 06:45:04;;;;;;;17.83;12.17;;;15.80;96.00;;;;;;4592914;19;20019;-20
2023/05/04 06:46:36;;;;;;;19.03;13.40;;;15.80;96.00;;;;;;4593114;19;20011;-20
2023/05/04 06:48:08;;;;;;;20.92;12.48;;;15.90;95.90;;;;;;4589908;19;20009;-20
2023/05/04 06:49:41;;;;;;;20.73;12.80;;;15.90;95.80;;;;;;4592652;19;20483;-21
2023/05/04 06:51:15;;;;;;;19.08;12.48;;;15.90;95.90;;;;;;4591459;19;20014;-20
2023/05/04 06:52:50;;;;;;;17.20;12.90;;;15.90;95.90;;;;;;4592010;19;20038;-20
2023/05/04 06:54:23;;;;;;;20.03;13.13;;;15.90;95.80;;;;;;4592901;19;20066;-20
2023/05/04 06:55:55;;;;;;;20.20;12.05;;;15.90;95.80;;;;;;4591461;19;20083;-20
2023/05/04 06:57:28;;;;;;;17.13;11.13;;;15.90;95.80;;;;;;4591318;19;20500;-21
2023/05/04 07:20:37;;;;;;;9.93;4.37;;;16.00;93.80;;;;;;4590253;19;20007;-20
2023/05/04 07:22:09;;;;;;;7.13;4.10;;;16.00;93.40;;;;;;4590169;19;20010;-20
2023/05/04 07:23:40;;;;;;;7.22;4.32;;;16.00;93.00;;;;;;4590055;19;20038;-20
2023/05/04 07:25:12;;;;;;;7.07;4.10;;;16.10;92.90;;;;;;4588373;19;20021;-20
2023/05/04 07:26:45;;;;;;;9.53;4.53;;;16.10;92.70;;;;;;4589365;19;20029;-20
2023/05/04 07:28:17;;;;;;;7.70;4.33;;;16.10;92.90;;;;;;4588869;19;20014;-20
2023/05/04 07:29:52;;;;;;;7.82;4.57;;;16.10;93.70;;;;;;4589517;19;20070;-21
2023/05/04 07:31:25;;;;;;;7.00;4.23;;;16.10;94.10;;;;;;4588705;19;20509;-20
2023/05/04 07:32:57;;;;;;;11.18;4.28;;;16.10;93.50;;;;;;4589495;19;20523;-20
2023/05/04 07:34:30;;;;;;;6.47;4.10;;;16.10;93.00;;;;;;4589879;19;20515;-20
2023/05/04 07:36:02;;;;;;;9.10;4.70;;;16.10;92.90;;;;;;4590328;19;20031;-19
2023/05/04 07:37:35;;;;;;;8.50;4.20;;;16.10;92.80;;;;;;4590718;19;20027;-20
2023/05/04 07:39:07;;;;;;;;;;;16.10;92.90;;;;;;4590025;19;20463;-20
2023/05/04 07:40:38;;;;;;;8.10;4.50;;;16.10;92.40;;;;;;4589561;19;19911;-20
2023/05/04 07:42:46;;;;;;;9.52;6.45;;;16.20;92.30;;;;;;4588681;19;20475;-20
2023/05/04 07:44:17;;;;;;;11.43;6.47;;;16.20;92.60;;;;;;4589563;19;20017;-21
2023/05/04 07:47:57;;;;;;;8.95;4.60;;;16.20;92.70;;;;;;4589072;19;20025;-20
2023/05/04 07:49:28;;;;;;;11.60;5.43;;;16.20;92.50;;;;;;4588556;19;20021;-20
2023/05/04 07:51:03;;;;;;;6.77;3.93;;;16.20;92.70;;;;;;4589619;19;20010;-20
2023/05/04 07:52:35;;;;;;;11.53;6.93;;;16.20;92.60;;;;;;4588502;19;20015;-20
2023/05/04 07:54:07;;;;;;;12.00;6.45;;;16.30;92.00;;;;;;4589794;19;20472;-20
2023/05/04 07:55:38;;;;;;;17.42;10.05;;;16.30;91.80;;;;;;4588269;19;20014;-21
2023/05/04 07:57:10;;;;;;;13.47;6.70;;;16.30;92.10;;;;;;4588794;19;20512;-20
2023/05/04 07:58:41;;;;;;;8.35;3.53;;;16.30;92.10;;;;;;4589434;19;20060;-20
2023/05/04 08:00:13;;;;;;;4.55;2.63;;;16.40;91.70;;;;;;4589878;19;20018;-20
2023/05/04 08:01:46;;;;;;;6.88;2.53;;;16.40;92.10;;;;;;4589569;19;20018;-20
2023/05/04 08:03:18;;;;;;;4.15;2.08;;;16.50;91.10;;;;;;4589262;19;20015;-21
2023/05/04 08:04:49;;;;;;;3.80;2.20;;;16.50;90.80;;;;;;4589176;19;20430;-21
2023/05/04 08:06:20;;;;;;;6.82;3.47;;;16.60;90.20;;;;;;4590094;19;20018;-20
2023/05/04 08:14:07;;;;;;;3.80;2.10;;;16.70;90.40;;;;;;4591609;19;19987;-20
2023/05/04 08:15:38;;;;;;;5.03;2.30;;;16.80;90.70;;;;;;4588856;19;20114;-20
2023/05/04 08:17:12;;;;;;;4.78;2.13;;;16.80;89.40;;;;;;4591381;19;20010;-20
2023/05/04 08:18:43;;;;;;;4.40;1.92;;;16.80;88.20;;;;;;4588438;19;20005;-20
2023/05/04 08:20:16;;;;;;;4.85;1.92;;;16.80;87.90;;;;;;4588743;19;20010;-20
2023/05/04 08:21:47;;;;;;;4.43;1.95;;;16.90;89.60;;;;;;4588679;19;20010;-20
2023/05/04 08:23:20;;;;;;;3.88;1.75;;;16.90;90.00;;;;;;4589171;19;20078;-20
2023/05/04 08:24:51;;;;;;;4.15;1.85;;;16.90;89.90;;;;;;4589678;19;20015;-20
2023/05/04 08:26:25;;;;;;;5.35;2.40;;;16.90;89.20;;;;;;4589050;19;20014;-20
2023/05/04 08:27:56;;;;;;;;;;;16.90;89.30;;;;;;4588148;19;20386;-20
2023/05/04 08:29:30;;;;;;;3.28;1.80;;;16.90;90.00;;;;;;4589537;19;19923;-20
2023/05/04 08:31:03;;;;;;;5.53;1.85;;;16.90;89.00;;;;;;4589357;19;20003;-20
2023/05/04 08:32:34;;;;;;;4.28;1.98;;;16.90;88.40;;;;;;4589310;19;20042;-20
2023/05/04 08:34:07;;;;;;;4.97;2.00;;;16.90;88.50;;;;;;4589586;19;21313;-20
2023/05/04 08:35:39;;;;;;;3.58;2.00;;;17.00;89.00;;;;;;4589942;19;20003;-20
2023/05/04 08:37:12;;;;;;;3.70;2.10;;;17.00;88.50;;;;;;4588955;19;20483;-20
2023/05/04 08:38:44;;;;;;;3.80;2.15;;;16.90;89.00;;;;;;4589248;19;20047;-20
2023/05/04 08:40:16;;;;;;;4.37;3.27;;;16.70;86.30;;;;;;4589546;19;20014;-20
2023/05/04 08:41:48;;;;;;;4.03;2.87;;;14.80;90.80;;;;;;4593632;19;20011;-20
2023/05/04 08:43:19;;;;;;;4.50;3.03;;;13.90;90.90;;;;;;4593663;19;20022;-20
2023/05/04 08:46:43;;;;;;;18.70;16.80;;;13.40;93.60;;;;;;4592521;19;20290;-20
2023/05/04 08:48:15;;;;;;;15.30;13.70;;;13.30;91.10;;;;;;4591092;19;20457;-20
2023/05/04 08:49:47;;;;;;;8.68;6.68;;;13.30;93.10;;;;;;4592851;19;20440;-20
2023/05/04 08:51:18;;;;;;;16.27;6.53;;;13.40;91.10;;;;;;4593222;19;20031;-20
2023/05/04 08:52:49;;;;;;;;;;;13.50;92.50;;;;;;4593152;19;20018;-20